createdAt,value
2022-11-16T00:02:12.450Z,24.13
2022-11-16T00:04:40.169Z,25.65
2022-11-16T00:07:07.730Z,21.85
2022-11-16T00:09:35.200Z,23.92
2022-11-16T00:12:06.098Z,21.40
2022-11-16T00:14:35.492Z,22.58
2022-11-16T00:17:03.931Z,21.92
2022-11-16T00:19:31.572Z,22.20
2022-11-16T00:21:59.537Z,22.73
2022-11-16T00:24:26.991Z,24.45
2022-11-16T00:26:56.241Z,23.30
2022-11-16T00:29:25.896Z,24.83
2022-11-16T00:31:54.431Z,24.10
2022-11-16T00:34:22.828Z,24.35
2022-11-16T00:36:50.441Z,20.98
2022-11-16T00:39:19.094Z,19.25
2022-11-16T00:41:47.689Z,20.73
2022-11-16T00:44:15.448Z,26.52
2022-11-16T00:46:42.697Z,25.60
2022-11-16T00:49:10.644Z,26.30
2022-11-16T00:51:38.548Z,23.45
2022-11-16T00:54:08.758Z,23.05
2022-11-16T00:56:37.734Z,28.08
2022-11-16T00:59:06.352Z,24.08
2022-11-16T01:01:33.730Z,24.95
2022-11-16T01:04:01.252Z,25.17
2022-11-16T01:06:28.522Z,26.42
2022-11-16T01:08:55.854Z,30.70
2022-11-16T01:11:42.540Z,25.92
2022-11-16T01:14:10.529Z,23.25
2022-11-16T01:16:38.012Z,24.70
2022-11-16T01:19:06.379Z,28.98
2022-11-16T01:21:34.441Z,26.08
2022-11-16T01:24:02.583Z,24.98
2022-11-16T01:26:31.376Z,29.25
2022-11-16T01:28:59.332Z,25.67
2022-11-16T01:31:29.859Z,27.27
2022-11-16T01:33:58.611Z,24.98
2022-11-16T01:36:29.174Z,25.25
2022-11-16T01:38:59.318Z,26.10
2022-11-16T01:41:30.780Z,23.50
2022-11-16T01:44:04.127Z,26.30
2022-11-16T01:46:39.563Z,28.02
2022-11-16T01:49:14.795Z,29.83
2022-11-16T01:51:47.666Z,29.27
2022-11-16T01:54:16.419Z,25.63
2022-11-16T01:57:03.328Z,22.98
2022-11-16T01:59:41.780Z,26.52
2022-11-16T02:02:16.047Z,24.63
2022-11-16T02:04:44.358Z,23.15
2022-11-16T02:08:02.335Z,30.75
2022-11-16T02:11:00.651Z,25.40
2022-11-16T02:13:41.018Z,27.88
2022-11-16T02:16:19.951Z,27.25
2022-11-16T02:19:12.921Z,26.13
2022-11-16T02:22:08.418Z,26.00
2022-11-16T02:25:03.225Z,27.10
2022-11-16T02:27:48.137Z,28.88
2022-11-16T02:30:18.403Z,28.52
2022-11-16T02:32:56.865Z,28.13
2022-11-16T02:35:27.197Z,25.63
2022-11-16T02:38:22.868Z,28.08
2022-11-16T02:40:59.108Z,31.02
2022-11-16T02:43:37.012Z,30.98
2022-11-16T02:46:12.610Z,31.98
2022-11-16T02:48:45.428Z,25.40
2022-11-16T02:51:14.314Z,31.73
2022-11-16T02:53:59.733Z,32.13
2022-11-16T02:56:28.741Z,32.45
2022-11-16T02:58:58.350Z,26.10
2022-11-16T03:01:41.666Z,27.60
2022-11-16T03:04:23.099Z,27.70
2022-11-16T03:06:51.721Z,27.83
2022-11-16T03:09:24.070Z,31.10
2022-11-16T03:14:51.943Z,27.20
2022-11-16T03:17:29.220Z,30.40
2022-11-16T03:20:04.666Z,28.77
2022-11-16T03:22:47.370Z,30.60
2022-11-16T03:25:19.379Z,26.02
2022-11-16T03:27:54.716Z,28.38
2022-11-16T03:30:25.773Z,29.42
2022-11-16T03:33:24.705Z,28.20
2022-11-16T03:36:15.126Z,30.40
2022-11-16T03:38:45.958Z,30.50
2022-11-16T03:41:15.087Z,24.02
2022-11-16T03:43:44.072Z,25.35
2022-11-16T03:46:12.534Z,30.42
2022-11-16T03:48:40.810Z,30.25
2022-11-16T03:51:14.447Z,32.63
2022-11-16T03:53:42.723Z,33.20
2022-11-16T03:56:11.339Z,31.40
2022-11-16T03:58:39.375Z,30.65
2022-11-16T04:01:06.721Z,31.70
2022-11-16T04:03:34.663Z,35.85
2022-11-16T04:06:20.397Z,28.98
2022-11-16T04:09:06.177Z,31.77
2022-11-16T04:11:54.415Z,29.58
2022-11-16T04:14:43.033Z,33.60
2022-11-16T04:17:33.664Z,30.77
2022-11-16T04:20:20.567Z,29.40
2022-11-16T04:23:18.836Z,28.63
2022-11-16T04:25:48.053Z,28.45
2022-11-16T04:28:20.217Z,26.63
2022-11-16T04:31:15.867Z,29.02
2022-11-16T04:34:09.864Z,28.50
2022-11-16T04:36:59.663Z,32.42
2022-11-16T04:39:28.633Z,34.45
2022-11-16T04:42:14.607Z,32.17
2022-11-16T04:45:01.955Z,35.45
2022-11-16T04:47:35.856Z,35.08
2022-11-16T04:50:03.838Z,36.70
2022-11-16T04:52:32.009Z,30.58
2022-11-16T04:54:59.977Z,33.72
2022-11-16T04:57:28.642Z,35.67
2022-11-16T04:59:56.808Z,35.05
2022-11-16T05:02:27.953Z,39.65
2022-11-16T05:04:58.219Z,31.42
2022-11-16T05:07:27.777Z,35.80
2022-11-16T05:10:04.000Z,36.38
2022-11-16T05:12:31.893Z,32.83
2022-11-16T05:15:02.365Z,35.67
2022-11-16T05:17:32.343Z,32.22
2022-11-16T05:20:19.319Z,36.75
2022-11-16T05:22:57.952Z,31.52
2022-11-16T05:25:33.825Z,35.53
2022-11-16T05:28:05.842Z,37.50
2022-11-16T05:30:36.554Z,35.55
2022-11-16T05:33:04.720Z,35.17
2022-11-16T05:35:35.158Z,37.85
2022-11-16T05:38:02.553Z,33.28
2022-11-16T05:40:33.063Z,30.05
2022-11-16T05:43:01.536Z,35.58
2022-11-16T05:45:33.320Z,39.83
2022-11-16T05:48:01.910Z,38.30
2022-11-16T05:50:29.275Z,46.47
2022-11-16T05:53:14.783Z,37.95
2022-11-16T05:55:42.399Z,36.80
2022-11-16T05:58:10.007Z,35.95
2022-11-16T06:00:38.115Z,36.78
2022-11-16T06:03:11.161Z,40.33
2022-11-16T06:05:40.644Z,39.58
2022-11-16T06:08:10.198Z,33.53
2022-11-16T06:10:37.544Z,66.65
2022-11-16T06:13:05.708Z,57.25
2022-11-16T06:15:38.345Z,68.07
2022-11-16T06:18:08.326Z,38.42
2022-11-16T06:20:38.881Z,41.65
2022-11-16T06:23:07.723Z,38.13
2022-11-16T06:25:39.147Z,38.92
2022-11-16T06:28:08.352Z,59.00
2022-11-16T06:30:38.534Z,53.38
2022-11-16T06:33:07.525Z,80.40
2022-11-16T06:35:34.835Z,37.70
2022-11-16T06:38:03.128Z,141.00
2022-11-16T06:40:30.498Z,129.93
2022-11-16T06:42:58.012Z,44.80
2022-11-16T06:45:27.859Z,35.00
2022-11-16T06:47:57.901Z,34.30
2022-11-16T06:50:25.499Z,38.22
2022-11-16T06:52:54.147Z,35.60
2022-11-16T06:55:23.436Z,36.60
2022-11-16T06:57:50.782Z,35.53
2022-11-16T07:00:18.618Z,37.25
2022-11-16T07:02:47.637Z,32.95
2022-11-16T07:05:18.160Z,30.77
2022-11-16T07:07:47.284Z,31.63
2022-11-16T07:10:14.512Z,35.13
2022-11-16T07:12:42.949Z,43.47
2022-11-16T07:15:11.173Z,41.85
2022-11-16T07:17:41.655Z,47.97
2022-11-16T07:20:09.541Z,71.32
2022-11-16T07:22:37.698Z,39.70
2022-11-16T07:25:05.899Z,57.20
2022-11-16T07:27:33.622Z,55.75
2022-11-16T07:30:02.319Z,39.00
2022-11-16T07:32:49.892Z,36.75
2022-11-16T07:35:32.359Z,31.60
2022-11-16T07:38:00.668Z,39.53
2022-11-16T07:40:27.967Z,34.03
2022-11-16T07:42:58.797Z,36.50
2022-11-16T07:45:53.328Z,38.30
2022-11-16T07:48:20.473Z,32.45
2022-11-16T07:51:09.221Z,34.30
2022-11-16T07:53:41.854Z,35.25
2022-11-16T07:56:10.402Z,35.65
2022-11-16T07:58:38.193Z,38.20
2022-11-16T08:01:07.744Z,39.45
2022-11-16T08:03:36.317Z,37.33
2022-11-16T08:06:17.000Z,43.88
2022-11-16T08:08:44.984Z,33.50
2022-11-16T08:11:14.079Z,140.82
2022-11-16T08:13:43.041Z,42.42
2022-11-16T08:16:19.758Z,214.45
2022-11-16T08:18:50.057Z,56.15
2022-11-16T08:21:19.217Z,50.97
2022-11-16T08:23:47.232Z,44.38
2022-11-16T08:26:22.042Z,35.03
2022-11-16T08:29:04.439Z,36.72
2022-11-16T08:31:35.396Z,67.22
2022-11-16T08:34:14.395Z,60.83
2022-11-16T08:36:45.091Z,67.25
2022-11-16T08:39:13.402Z,102.55
2022-11-16T08:41:42.402Z,43.58
2022-11-16T08:44:11.240Z,37.28
2022-11-16T08:46:41.370Z,35.13
2022-11-16T08:49:49.738Z,33.42
2022-11-16T08:52:19.143Z,39.33
2022-11-16T08:54:47.652Z,38.40
2022-11-16T08:57:16.568Z,36.88
2022-11-16T08:59:45.672Z,35.80
2022-11-16T09:02:14.730Z,39.55
2022-11-16T09:04:42.478Z,66.97
2022-11-16T09:07:10.495Z,37.78
2022-11-16T09:09:37.676Z,37.88
2022-11-16T09:14:49.679Z,33.17
2022-11-16T09:17:22.791Z,31.73
2022-11-16T09:19:50.655Z,41.20
2022-11-16T09:22:18.135Z,39.03
2022-11-16T09:24:45.597Z,35.47
2022-11-16T09:27:13.157Z,38.58
2022-11-16T09:29:40.800Z,40.13
2022-11-16T09:32:08.043Z,36.60
2022-11-16T09:34:37.429Z,40.75
2022-11-16T09:37:05.870Z,34.47
2022-11-16T09:42:54.804Z,35.88
2022-11-16T09:45:30.022Z,39.17
2022-11-16T09:48:02.978Z,34.90
2022-11-16T09:53:53.404Z,37.70
2022-11-16T09:56:23.111Z,32.30
2022-11-16T09:59:02.988Z,26.48
2022-11-16T10:01:33.593Z,36.33
2022-11-16T10:04:07.992Z,34.38
2022-11-16T10:06:55.390Z,33.25
2022-11-16T10:09:22.806Z,35.58
2022-11-16T10:12:20.970Z,32.97
2022-11-16T10:15:13.141Z,32.88
2022-11-16T10:18:24.464Z,36.53
2022-11-16T10:21:25.419Z,32.20
2022-11-16T10:24:17.511Z,34.40
2022-11-16T10:27:01.430Z,40.03
2022-11-16T10:29:43.417Z,41.33
2022-11-16T10:32:16.978Z,39.92
2022-11-16T10:37:16.956Z,36.25
2022-11-16T10:39:44.416Z,49.15
2022-11-16T10:42:17.383Z,64.25
2022-11-16T10:44:56.595Z,50.17
2022-11-16T10:47:38.767Z,43.25
2022-11-16T10:50:20.981Z,45.30
2022-11-16T10:52:48.775Z,48.50
2022-11-16T10:55:16.357Z,45.83
2022-11-16T10:58:00.658Z,62.10
2022-11-16T11:00:40.850Z,46.15
2022-11-16T11:03:10.907Z,47.60
2022-11-16T11:05:48.555Z,45.00
2022-11-16T11:08:30.648Z,46.28
2022-11-16T11:11:23.811Z,43.58
2022-11-16T11:14:12.379Z,47.77
2022-11-16T11:16:41.640Z,46.10
2022-11-16T11:19:38.383Z,45.33
2022-11-16T11:22:05.663Z,42.05
2022-11-16T11:24:48.267Z,46.40
2022-11-16T11:27:22.529Z,46.45
2022-11-16T11:29:56.272Z,43.88
2022-11-16T11:32:30.925Z,40.33
2022-11-16T11:35:00.462Z,40.05
2022-11-16T11:37:35.092Z,44.60
2022-11-16T11:43:23.336Z,34.97
2022-11-16T11:46:03.531Z,34.85
2022-11-16T11:48:41.515Z,39.67
2022-11-16T11:51:15.623Z,40.22
2022-11-16T11:53:49.831Z,35.55
2022-11-16T11:56:18.088Z,38.35
2022-11-16T11:58:48.196Z,37.33
2022-11-16T12:02:02.608Z,38.03
2022-11-16T12:04:38.991Z,35.45
2022-11-16T12:07:33.290Z,35.53
2022-11-16T12:10:19.148Z,42.97
2022-11-16T12:12:58.812Z,38.78
2022-11-16T12:15:35.689Z,37.75
2022-11-16T12:18:26.222Z,34.05
2022-11-16T12:21:13.501Z,32.08
2022-11-16T12:24:29.364Z,33.95
2022-11-16T12:27:27.169Z,35.35
2022-11-16T12:30:20.356Z,32.35
2022-11-16T12:33:38.372Z,38.03
2022-11-16T12:36:20.683Z,32.03
2022-11-16T12:39:11.155Z,45.50
2022-11-16T12:41:59.665Z,40.15
2022-11-16T12:44:57.629Z,39.13
2022-11-16T12:47:38.454Z,34.75
2022-11-16T12:50:20.785Z,40.05
2022-11-16T12:52:53.968Z,38.30
2022-11-16T12:55:34.658Z,37.05
2022-11-16T12:58:20.843Z,33.17
2022-11-16T13:01:11.241Z,36.58
2022-11-16T13:03:50.957Z,32.35
2022-11-16T13:06:31.324Z,40.97
2022-11-16T13:09:14.470Z,32.33
2022-11-16T13:11:51.838Z,33.47
2022-11-16T13:14:29.378Z,34.38
2022-11-16T13:16:58.417Z,37.50
2022-11-16T13:19:26.556Z,36.25
2022-11-16T13:22:31.599Z,32.50
2022-11-16T13:25:08.048Z,33.28
2022-11-16T13:27:42.976Z,29.58
2022-11-16T13:30:29.848Z,33.05
2022-11-16T13:33:26.928Z,31.85
2022-11-16T13:35:54.168Z,33.47
2022-11-16T13:38:51.394Z,35.60
2022-11-16T13:41:32.237Z,31.88
2022-11-16T13:44:00.453Z,30.08
2022-11-16T13:46:57.332Z,37.03
2022-11-16T13:49:32.780Z,56.72
2022-11-16T13:52:21.934Z,47.53
2022-11-16T13:54:55.939Z,93.72
2022-11-16T13:57:50.906Z,37.95
2022-11-16T14:00:26.048Z,78.18
2022-11-16T14:03:17.972Z,50.85
2022-11-16T14:05:47.588Z,53.83
2022-11-16T14:08:37.514Z,41.58
2022-11-16T14:11:26.051Z,50.92
2022-11-16T14:13:54.229Z,47.08
2022-11-16T14:16:21.666Z,43.35
2022-11-16T14:18:53.254Z,53.08
2022-11-16T14:21:20.500Z,80.00
2022-11-16T14:23:57.543Z,66.35
2022-11-16T14:26:59.241Z,51.58
2022-11-16T14:29:45.096Z,58.00
2022-11-16T14:32:31.652Z,44.33
2022-11-16T14:35:01.782Z,41.33
2022-11-16T14:37:36.453Z,54.50
2022-11-16T14:40:08.997Z,54.20
2022-11-16T14:43:09.570Z,112.70
2022-11-16T14:45:37.249Z,81.50
2022-11-16T14:48:19.379Z,67.82
2022-11-16T14:51:05.362Z,63.47
2022-11-16T14:53:35.739Z,52.28
2022-11-16T14:56:15.319Z,47.35
2022-11-16T14:58:53.124Z,48.30
2022-11-16T15:01:25.695Z,40.35
2022-11-16T15:04:10.634Z,47.27
2022-11-16T15:06:51.021Z,40.60
2022-11-16T15:09:26.423Z,45.10
2022-11-16T15:12:12.489Z,49.90
2022-11-16T15:14:50.900Z,41.47
2022-11-16T15:17:22.224Z,38.22
2022-11-16T15:20:02.300Z,62.45
2022-11-16T15:22:32.521Z,94.65
2022-11-16T15:25:01.556Z,93.13
2022-11-16T15:27:34.989Z,78.20
2022-11-16T15:32:38.073Z,80.65
2022-11-16T15:35:05.934Z,51.65
2022-11-16T15:37:33.350Z,56.75
2022-11-16T15:40:02.694Z,46.90
2022-11-16T15:42:30.185Z,52.40
2022-11-16T15:45:01.512Z,45.80
2022-11-16T15:47:28.987Z,44.53
2022-11-16T15:49:56.399Z,47.58
2022-11-16T15:53:02.636Z,49.05
2022-11-16T15:55:39.547Z,56.97
2022-11-16T15:58:26.816Z,46.92
2022-11-16T16:00:55.479Z,58.10
2022-11-16T16:03:29.514Z,55.40
2022-11-16T16:05:56.815Z,60.67
2022-11-16T16:08:39.633Z,59.33
2022-11-16T16:11:23.998Z,60.40
2022-11-16T16:14:02.592Z,72.90
2022-11-16T16:16:38.273Z,594.50
2022-11-16T16:19:24.628Z,479.90
2022-11-16T16:21:52.233Z,238.35
2022-11-16T16:24:44.252Z,83.63
2022-11-16T16:27:16.024Z,74.35
2022-11-16T16:29:44.355Z,88.35
2022-11-16T16:32:20.899Z,76.53
2022-11-16T16:34:48.265Z,107.22
2022-11-16T16:37:15.724Z,166.40
2022-11-16T16:39:42.930Z,157.57
2022-11-16T16:42:13.368Z,222.93
2022-11-16T16:44:41.843Z,250.20
2022-11-16T16:47:10.184Z,247.27
2022-11-16T16:49:37.741Z,258.45
2022-11-16T16:52:06.527Z,253.60
2022-11-16T16:54:34.006Z,187.27
2022-11-16T16:57:03.998Z,192.40
2022-11-16T16:59:50.396Z,190.45
2022-11-16T17:02:17.986Z,192.50
2022-11-16T17:04:47.083Z,177.55
2022-11-16T17:07:15.945Z,172.65
2022-11-16T17:09:43.918Z,179.95
2022-11-16T17:12:11.231Z,168.27
2022-11-16T17:14:38.755Z,161.82
2022-11-16T17:17:05.940Z,121.80
2022-11-16T17:19:33.367Z,123.53
2022-11-16T17:22:03.933Z,125.35
2022-11-16T17:24:34.539Z,92.85
2022-11-16T17:27:01.654Z,91.97
2022-11-16T17:29:28.976Z,83.82
2022-11-16T17:31:56.416Z,87.95
2022-11-16T17:34:23.948Z,81.30
2022-11-16T17:36:51.348Z,111.75
2022-11-16T17:39:37.492Z,108.30
2022-11-16T17:42:05.398Z,90.28
2022-11-16T17:44:36.074Z,84.43
2022-11-16T17:47:03.436Z,80.93
2022-11-16T17:49:30.533Z,78.45
2022-11-16T17:51:57.866Z,83.80
2022-11-16T17:54:25.271Z,83.03
2022-11-16T17:56:52.705Z,72.20
2022-11-16T17:59:26.410Z,79.78
2022-11-16T18:01:57.727Z,64.20
2022-11-16T18:04:25.141Z,68.88
2022-11-16T18:06:52.709Z,78.75
2022-11-16T18:09:20.059Z,78.78
2022-11-16T18:11:47.485Z,96.28
2022-11-16T18:14:14.944Z,120.15
2022-11-16T18:16:43.563Z,131.35
2022-11-16T18:19:16.468Z,104.90
2022-11-16T18:21:44.547Z,129.80
2022-11-16T18:24:12.890Z,133.55
2022-11-16T18:26:40.808Z,168.02
2022-11-16T18:29:12.354Z,158.82
2022-11-16T18:31:42.640Z,163.20
2022-11-16T18:34:13.392Z,373.45
2022-11-16T18:36:41.903Z,515.78
2022-11-16T18:39:09.449Z,251.43
2022-11-16T18:41:37.210Z,286.13
2022-11-16T18:44:06.340Z,214.80
2022-11-16T18:46:34.226Z,317.88
2022-11-16T18:49:01.903Z,149.60
2022-11-16T18:51:29.415Z,147.25
2022-11-16T18:53:57.447Z,99.57
2022-11-16T18:56:25.437Z,85.82
2022-11-16T18:58:53.561Z,91.65
2022-11-16T19:01:23.770Z,93.60
2022-11-16T19:03:52.494Z,92.40
2022-11-16T19:06:20.712Z,90.45
2022-11-16T19:08:54.978Z,91.18
2022-11-16T19:11:24.084Z,92.68
2022-11-16T19:14:07.940Z,86.28
2022-11-16T19:19:05.112Z,78.90
2022-11-16T19:21:33.200Z,87.75
2022-11-16T19:24:01.702Z,102.95
2022-11-16T19:26:29.283Z,651.28
2022-11-16T19:28:57.182Z,395.52
2022-11-16T19:31:29.356Z,101.03
2022-11-16T19:34:02.030Z,77.90
2022-11-16T19:36:31.118Z,78.10
2022-11-16T19:38:59.401Z,76.10
2022-11-16T19:41:28.219Z,80.22
2022-11-16T19:43:59.779Z,79.57
2022-11-16T19:46:30.003Z,71.43
2022-11-16T19:48:57.852Z,77.63
2022-11-16T19:51:31.116Z,78.60
2022-11-16T19:54:00.352Z,76.40
2022-11-16T19:56:28.615Z,89.88
2022-11-16T19:58:55.874Z,95.63
2022-11-16T20:01:29.696Z,81.25
2022-11-16T20:06:29.638Z,74.55
2022-11-16T20:09:01.148Z,86.60
2022-11-16T20:11:34.275Z,110.30
2022-11-16T20:14:03.498Z,112.30
2022-11-16T20:16:38.409Z,107.40
2022-11-16T20:19:08.559Z,94.40
2022-11-16T20:21:41.915Z,112.72
2022-11-16T20:24:16.718Z,124.55
2022-11-16T20:26:47.248Z,107.22
2022-11-16T20:29:16.407Z,105.53
2022-11-16T20:31:45.527Z,111.30
2022-11-16T20:34:15.312Z,223.95
2022-11-16T20:36:45.142Z,747.28
2022-11-16T20:39:14.752Z,144.77
2022-11-16T20:41:44.232Z,151.35
2022-11-16T20:44:23.362Z,138.50
2022-11-16T20:46:52.873Z,128.77
2022-11-16T20:49:20.228Z,137.57
2022-11-16T20:51:48.559Z,131.57
2022-11-16T20:54:15.730Z,126.97
2022-11-16T20:56:44.716Z,142.13
2022-11-16T20:59:12.487Z,127.35
2022-11-16T21:01:41.684Z,117.70
2022-11-16T21:04:11.261Z,279.92
2022-11-16T21:06:38.471Z,327.83
2022-11-16T21:09:05.965Z,144.07
2022-11-16T21:11:54.303Z,145.10
2022-11-16T21:14:22.443Z,88.72
2022-11-16T21:16:49.769Z,94.47
2022-11-16T21:19:20.307Z,93.80
2022-11-16T21:21:48.229Z,98.25
2022-11-16T21:24:15.521Z,100.88
2022-11-16T21:26:42.902Z,86.80
2022-11-16T21:29:10.282Z,99.68
2022-11-16T21:31:37.700Z,90.93
2022-11-16T21:34:07.635Z,95.00
2022-11-16T21:36:36.287Z,85.65
2022-11-16T21:39:03.642Z,89.65
2022-11-16T21:41:32.020Z,95.70
2022-11-16T21:43:59.615Z,93.80
2022-11-16T21:46:28.076Z,90.95
2022-11-16T21:48:56.800Z,90.28
2022-11-16T21:51:26.966Z,92.07
2022-11-16T21:53:55.110Z,95.32
2022-11-16T21:56:24.830Z,91.63
2022-11-16T21:58:53.422Z,91.82
2022-11-16T22:01:22.355Z,80.90
2022-11-16T22:04:10.022Z,93.25
2022-11-16T22:06:55.688Z,89.18
2022-11-16T22:09:23.071Z,87.43
2022-11-16T22:11:50.219Z,81.68
2022-11-16T22:14:17.397Z,88.82
2022-11-16T22:16:44.720Z,82.97
2022-11-16T22:19:11.946Z,85.15
2022-11-16T22:21:39.047Z,82.30
2022-11-16T22:24:07.663Z,81.00
2022-11-16T22:26:38.264Z,83.25
2022-11-16T22:29:05.493Z,86.25
2022-11-16T22:31:33.316Z,92.55
2022-11-16T22:34:00.694Z,91.55
2022-11-16T22:36:27.940Z,95.07
2022-11-16T22:38:57.350Z,90.68
2022-11-16T22:41:24.652Z,86.65
2022-11-16T22:43:51.943Z,87.78
2022-11-16T22:46:19.427Z,98.53
2022-11-16T22:48:50.603Z,94.60
2022-11-16T22:51:28.717Z,83.85
2022-11-16T22:53:57.225Z,83.70
2022-11-16T22:56:25.794Z,92.22
2022-11-16T22:58:53.157Z,81.15
2022-11-16T23:01:21.027Z,83.13
2022-11-16T23:03:48.771Z,83.47
2022-11-16T23:06:16.415Z,97.30
2022-11-16T23:08:43.681Z,97.47
2022-11-16T23:11:31.131Z,105.50
2022-11-16T23:14:17.224Z,89.45
2022-11-16T23:16:45.610Z,88.32
2022-11-16T23:19:34.380Z,93.75
2022-11-16T23:22:20.498Z,90.57
2022-11-16T23:25:06.185Z,95.68
2022-11-16T23:27:39.178Z,102.15
2022-11-16T23:30:12.514Z,95.95
2022-11-16T23:32:41.848Z,97.15
2022-11-16T23:35:10.440Z,104.50
2022-11-16T23:37:54.069Z,102.22
2022-11-16T23:40:23.067Z,109.13
2022-11-16T23:43:10.405Z,104.15
2022-11-16T23:45:38.918Z,105.82
2022-11-16T23:48:10.635Z,113.05
2022-11-16T23:50:38.207Z,99.60
2022-11-16T23:53:07.524Z,96.40
2022-11-16T23:55:38.446Z,90.93
2022-11-16T23:58:07.035Z,90.07
